Chantal — A8WQ3 — position and weather

sailwx.info

Track history (hours):
 
Tides and Currents Weather Stations Pressure Air Temp Water Temp Dewpoint Dewpoint Depression Visibility Wind Speed Wind Dir Waves Ship Positions

Chantal

Last reported at 2016-Sep-26 01:23 UTC. Time now 2016-Sep-29 15:18 UTC.
Position N 09°50' W 079°58'.

Length 228 m; draft 11.4 m.

Type: Tanker. MMSI: 636014805.

Date/timePositionNaut miles runAvg speedWind from/ knotsBaromVisibWave heightAir tempDewpointWater temp
2016-Sep-26 01:23N 09°50' W 079°58'1214.8
2016-Sep-26 00:33N 09°38' W 079°57'22 7.2
2016-Sep-25 21:33N 09°16' W 079°55'1 0.2
2016-Sep-25 17:24N 09°15' W 079°55'2 2.1
2016-Sep-25 16:33N 09°14' W 079°55'7 7.0
2016-Sep-25 15:33N 09°10' W 079°49'7 7.2
2016-Sep-25 14:32N 09°07' W 079°43'9 3.8
2016-Sep-25 12:15N 09°01' W 079°36'1 1.4
2016-Sep-25 11:26N 08°60' W 079°36'1 0.8
2016-Sep-25 10:30N 08°59' W 079°35'3 3.3
2016-Sep-25 09:27N 08°56' W 079°34'6 2.9
2016-Sep-25 07:13N 08°51' W 079°30'0 0.0
2016-Sep-25 04:10N 08°51' W 079°30'0 0.0
2016-Sep-25 00:16N 08°51' W 079°30'0 0.0
2016-Sep-24 22:19N 08°51' W 079°30'0 0.0
2016-Sep-24 19:28N 08°51' W 079°30'0 0.0
2016-Sep-24 18:16N 08°51' W 079°30'0 0.0
2016-Sep-24 17:28N 08°51' W 079°30'0 0.0
2016-Sep-24 16:10N 08°51' W 079°30'0 0.0
2016-Sep-24 12:19N 08°51' W 079°30'0 0.0
2016-Sep-24 10:25N 08°51' W 079°30'0 0.0
2016-Sep-24 03:28N 08°51' W 079°30'0 0.0
2016-Sep-24 02:19N 08°51' W 079°30'0 0.0
2016-Sep-24 01:22N 08°51' W 079°30'0 0.0
2016-Sep-24 00:28N 08°51' W 079°30'0 0.0
2016-Sep-23 19:22N 08°51' W 079°30'0 0.0
2016-Sep-23 17:28N 08°51' W 079°30'0 0.0
2016-Sep-23 16:07N 08°51' W 079°30'0 0.0
2016-Sep-23 15:16N 08°51' W 079°30'0 0.0
2016-Sep-23 09:04N 08°51' W 079°30'0 0.0
2016-Sep-23 06:06N 08°51' W 079°30'0 0.0
2016-Sep-23 04:18N 08°51' W 079°30'0 0.0
2016-Sep-23 03:25N 08°51' W 079°30'0 0.0
2016-Sep-23 02:25N 08°51' W 079°30'0 0.1
2016-Sep-23 01:28N 08°51' W 079°30'0 0.1
2016-Sep-23 00:22N 08°51' W 079°30'0 0.0
2016-Sep-22 23:25N 08°51' W 079°30'0 0.0
2016-Sep-22 20:06N 08°51' W 079°30'2 0.1
2016-Sep-22 03:33N 08°49' W 079°29'29 9.2
2016-Sep-22 00:25N 08°21' W 079°22'10 9.9
2016-Sep-21 23:26N 08°11' W 079°22'  
Track history (hours):
 
Tides and Currents Weather Stations Pressure Air Temp Water Temp Dewpoint Dewpoint Depression Visibility Wind Speed Wind Dir Waves Ship Positions

Chantal

Last reported at 2016-Sep-26 01:23 UTC. Time now 2016-Sep-29 15:18 UTC.
Position N 09°50' W 079°58'.

Length 228 m; draft 11.4 m.

Type: Tanker. MMSI: 636014805.

Date/timePositionNaut miles runAvg speedWind from/ knotsBaromVisibWave heightAir tempDewpointWater temp
2016-Sep-26 01:23N 09°50' W 079°58'1214.8
2016-Sep-26 00:33N 09°38' W 079°57'22 7.2
2016-Sep-25 21:33N 09°16' W 079°55'1 0.2
2016-Sep-25 17:24N 09°15' W 079°55'2 2.1
2016-Sep-25 16:33N 09°14' W 079°55'7 7.0
2016-Sep-25 15:33N 09°10' W 079°49'7 7.2
2016-Sep-25 14:32N 09°07' W 079°43'9 3.8
2016-Sep-25 12:15N 09°01' W 079°36'1 1.4
2016-Sep-25 11:26N 08°60' W 079°36'1 0.8
2016-Sep-25 10:30N 08°59' W 079°35'3 3.3
2016-Sep-25 09:27N 08°56' W 079°34'6 2.9
2016-Sep-25 07:13N 08°51' W 079°30'0 0.0
2016-Sep-25 04:10N 08°51' W 079°30'0 0.0
2016-Sep-25 00:16N 08°51' W 079°30'0 0.0
2016-Sep-24 22:19N 08°51' W 079°30'0 0.0
2016-Sep-24 19:28N 08°51' W 079°30'0 0.0
2016-Sep-24 18:16N 08°51' W 079°30'0 0.0
2016-Sep-24 17:28N 08°51' W 079°30'0 0.0
2016-Sep-24 16:10N 08°51' W 079°30'0 0.0
2016-Sep-24 12:19N 08°51' W 079°30'0 0.0
2016-Sep-24 10:25N 08°51' W 079°30'0 0.0
2016-Sep-24 03:28N 08°51' W 079°30'0 0.0
2016-Sep-24 02:19N 08°51' W 079°30'0 0.0
2016-Sep-24 01:22N 08°51' W 079°30'0 0.0
2016-Sep-24 00:28N 08°51' W 079°30'0 0.0
2016-Sep-23 19:22N 08°51' W 079°30'0 0.0
2016-Sep-23 17:28N 08°51' W 079°30'0 0.0
2016-Sep-23 16:07N 08°51' W 079°30'0 0.0
2016-Sep-23 15:16N 08°51' W 079°30'0 0.0
2016-Sep-23 09:04N 08°51' W 079°30'0 0.0
2016-Sep-23 06:06N 08°51' W 079°30'0 0.0
2016-Sep-23 04:18N 08°51' W 079°30'0 0.0
2016-Sep-23 03:25N 08°51' W 079°30'0 0.0
2016-Sep-23 02:25N 08°51' W 079°30'0 0.1
2016-Sep-23 01:28N 08°51' W 079°30'0 0.1
2016-Sep-23 00:22N 08°51' W 079°30'0 0.0
2016-Sep-22 23:25N 08°51' W 079°30'0 0.0
2016-Sep-22 20:06N 08°51' W 079°30'2 0.1
2016-Sep-22 03:33N 08°49' W 079°29'29 9.2
2016-Sep-22 00:25N 08°21' W 079°22'10 9.9
2016-Sep-21 23:26N 08°11' W 079°22'  

Dump ship's entire track history